Time;durP1;ratioP1;P1;durP2;ratioP2;P2;SDS_P1;SDS_P2;PMS_P1;PMS_P2;Temp;Humidity;BMP_temperature;BMP_pressure;BME280_temperature;BME280_humidity;BME280_pressure;Samples;Min_cycle;Max_cycle;Signal;HPM_P1;HPM_P2
2022/05/17 00:00:49;;;;;;;5.82;3.33;;;;;;;14.73;55.10;95061.88;5113527;27;20084;-72
2022/05/17 00:03:15;;;;;;;4.97;3.30;;;;;;;14.71;55.21;95051.59;5110598;28;20433;-72
2022/05/17 00:05:44;;;;;;;4.05;3.13;;;;;;;14.74;55.45;95056.53;5093761;28;20412;-72
2022/05/17 00:08:09;;;;;;;6.57;3.08;;;;;;;14.62;55.60;95051.63;5110980;28;20047;-72
2022/05/17 00:10:35;;;;;;;6.55;3.60;;;;;;;14.51;55.94;95053.47;5101617;27;20027;-73
2022/05/17 00:13:00;;;;;;;4.85;3.45;;;;;;;14.47;56.17;95052.09;5132128;27;20392;-73
2022/05/17 00:15:26;;;;;;;4.20;3.35;;;;;;;14.45;56.18;95046.19;5132198;27;20034;-72
2022/05/17 00:17:52;;;;;;;4.35;3.30;;;;;;;14.33;56.50;95047.34;5130298;27;20027;-72
2022/05/17 00:20:18;;;;;;;5.13;3.60;;;;;;;14.37;56.13;95047.88;5097028;27;20517;-72
2022/05/17 00:22:43;;;;;;;5.50;3.72;;;;;;;14.38;56.19;95052.97;5131104;27;20037;-72
2022/05/17 00:25:09;;;;;;;4.03;3.45;;;;;;;14.45;56.19;95063.66;5108597;28;20110;-72
2022/05/17 00:27:35;;;;;;;4.65;3.08;;;;;;;14.38;56.36;95057.38;5110405;28;20110;-72
2022/05/17 00:30:01;;;;;;;4.68;3.42;;;;;;;14.26;56.85;95062.78;5110471;28;20035;-72
2022/05/17 00:32:26;;;;;;;3.67;3.10;;;;;;;14.28;56.60;95062.63;5120598;27;20125;-72
2022/05/17 00:34:52;;;;;;;4.88;3.75;;;;;;;14.18;57.13;95065.28;5131396;27;20035;-72
2022/05/17 00:37:17;;;;;;;3.53;3.22;;;;;;;14.15;57.29;95062.97;5132216;27;20065;-72
2022/05/17 00:39:42;;;;;;;4.78;3.30;;;;;;;14.15;57.26;95067.34;5113657;27;20084;-72
2022/05/17 00:42:08;;;;;;;5.35;3.67;;;;;;;14.04;57.78;95063.97;5110690;27;20100;-72
2022/05/17 00:44:43;;;;;;;3.60;3.30;;;;;;;13.97;57.69;95051.59;5110456;28;20405;-72
2022/05/17 00:47:32;;;;;;;7.07;3.80;;;;;;;13.99;58.22;95060.13;5112481;28;20028;-73
2022/05/17 00:50:14;;;;;;;4.00;3.42;;;;;;;13.97;58.00;95064.66;5078344;28;20111;-72
2022/05/17 00:52:49;;;;;;;3.83;3.42;;;;;;;13.93;58.47;95056.28;5110083;28;20412;-72
2022/05/17 00:55:18;;;;;;;5.05;3.75;;;;;;;14.00;58.53;95053.94;5111660;28;20047;-72
2022/05/17 00:57:54;;;;;;;5.85;3.80;;;;;;;13.97;58.96;95055.03;5130659;28;20477;-72
2022/05/17 01:00:20;;;;;;;6.43;4.10;;;;;;;13.85;59.41;95046.53;5130621;28;20027;-73
2022/05/17 01:02:49;;;;;;;5.55;3.90;;;;;;;13.77;59.64;95041.19;5085559;28;20074;-72
2022/05/17 01:05:14;;;;;;;5.82;4.00;;;;;;;13.61;60.21;95047.00;5093600;28;20019;-72
2022/05/17 01:07:41;;;;;;;5.57;4.03;;;;;;;13.60;60.20;95037.53;5092860;28;20406;-72
2022/05/17 01:10:08;;;;;;;4.75;4.35;;;;;;;13.59;60.38;95040.25;5096476;28;20024;-72
2022/05/17 01:12:35;;;;;;;4.40;4.00;;;;;;;13.57;60.62;95039.59;5095780;28;20032;-73
2022/05/17 01:15:00;;;;;;;5.95;4.00;;;;;;;13.44;61.08;95044.28;5125577;27;20035;-72
2022/05/17 01:17:32;;;;;;;5.40;4.30;;;;;;;13.42;60.88;95041.78;5119539;27;20034;-72
2022/05/17 01:19:58;;;;;;;4.70;4.18;;;;;;;13.39;60.83;95042.06;5135810;27;20023;-72
2022/05/17 01:22:23;;;;;;;5.15;4.55;;;;;;;13.31;61.31;95036.72;5134413;27;20065;-72
2022/05/17 01:24:49;;;;;;;5.85;4.47;;;;;;;13.33;61.10;95021.75;5096257;28;20096;-72
2022/05/17 01:27:22;;;;;;;4.47;4.07;;;;;;;13.33;61.14;95035.63;5080052;28;20643;-72
2022/05/17 01:29:48;;;;;;;5.15;4.20;;;;;;;13.32;61.00;95027.97;5080604;28;20019;-72
2022/05/17 01:32:14;;;;;;;7.07;4.20;;;;;;;13.39;61.20;95039.47;5097945;27;20059;-72
2022/05/17 01:34:40;;;;;;;6.38;4.68;;;;;;;13.34;60.86;95039.88;5117325;27;20027;-72
2022/05/17 01:37:05;;;;;;;4.88;4.40;;;;;;;13.19;61.35;95020.38;5127078;27;20043;-72
2022/05/17 01:39:32;;;;;;;5.18;4.53;;;;;;;13.26;61.28;95025.88;5114882;28;20058;-72
2022/05/17 01:41:57;;;;;;;6.80;4.15;;;;;;;13.34;60.87;95026.00;5123138;27;20047;-72
2022/05/17 01:44:23;;;;;;;4.78;4.00;;;;;;;13.30;60.82;95022.88;5117049;27;20027;-72
2022/05/17 01:46:49;;;;;;;5.00;4.03;;;;;;;13.36;60.91;95035.34;5117040;27;20043;-72
2022/05/17 01:49:14;;;;;;;6.05;4.10;;;;;;;13.37;60.72;95026.56;5118522;27;20027;-72
2022/05/17 01:51:40;;;;;;;4.45;4.05;;;;;;;13.41;60.79;95035.75;5113390;28;20450;-72
2022/05/17 01:54:05;;;;;;;4.75;4.35;;;;;;;13.37;60.89;95034.41;5113426;28;20390;-72
2022/05/17 01:56:31;;;;;;;5.00;4.32;;;;;;;13.33;60.94;95033.03;5118284;27;22605;-72
2022/05/17 01:58:57;;;;;;;5.70;3.95;;;;;;;13.25;61.27;95035.47;5134555;27;20038;-72
2022/05/17 02:01:22;;;;;;;6.82;4.50;;;;;;;13.18;61.22;95043.03;5133838;27;20432;-72
2022/05/17 02:03:48;;;;;;;6.68;4.28;;;;;;;13.28;61.02;95045.66;5122619;27;20044;-73
2022/05/17 02:06:13;;;;;;;4.50;4.10;;;;;;;13.18;60.84;95034.38;5114325;28;20020;-72
2022/05/17 02:08:39;;;;;;;5.38;4.30;;;;;;;13.23;60.87;95047.00;5096114;28;20030;-72
2022/05/17 02:11:04;;;;;;;6.50;4.43;;;;;;;13.20;60.70;95048.09;5114580;28;20492;-72
2022/05/17 02:13:30;;;;;;;5.00;4.10;;;;;;;13.17;60.79;95041.34;5131154;27;20462;-72
2022/05/17 02:15:55;;;;;;;5.13;3.90;;;;;;;13.21;60.78;95044.53;5116469;27;20027;-72
2022/05/17 02:18:21;;;;;;;6.95;4.72;;;;;;;13.27;60.58;95046.63;5131685;27;20027;-72
2022/05/17 02:20:46;;;;;;;4.68;4.18;;;;;;;13.27;60.62;95053.63;5132763;27;20043;-72
2022/05/17 02:23:12;;;;;;;5.78;4.30;;;;;;;13.32;60.34;95051.44;5116461;27;20031;-72
2022/05/17 02:25:37;;;;;;;6.18;4.05;;;;;;;13.28;60.51;95052.66;5133332;27;20027;-72
2022/05/17 02:28:03;;;;;;;5.45;4.40;;;;;;;13.23;60.62;95042.59;5121341;27;20032;-72
2022/05/17 02:30:29;;;;;;;7.38;5.18;;;;;;;13.26;60.75;95049.34;5095807;28;20417;-72
2022/05/17 02:32:54;;;;;;;5.75;4.28;;;;;;;13.24;60.56;95048.66;5112775;28;20039;-72
2022/05/17 02:35:20;;;;;;;4.90;4.40;;;;;;;13.17;60.56;95046.56;5131699;27;20028;-72
2022/05/17 02:37:45;;;;;;;5.10;4.28;;;;;;;13.16;60.68;95044.94;5133117;27;20049;-72
2022/05/17 02:40:11;;;;;;;5.50;4.53;;;;;;;13.10;60.82;95048.09;5133051;27;20027;-72
2022/05/17 02:42:37;;;;;;;5.05;4.47;;;;;;;13.12;60.66;95051.41;5130586;27;20043;-72
2022/05/17 02:45:03;;;;;;;6.07;4.32;;;;;;;13.06;60.65;95038.88;5133110;27;20027;-72
2022/05/17 02:47:29;;;;;;;7.35;4.60;;;;;;;13.11;60.55;95046.31;5134313;27;20027;-72
2022/05/17 02:49:54;;;;;;;5.85;4.10;;;;;;;13.10;60.48;95039.47;5118706;27;20100;-72
2022/05/17 02:52:19;;;;;;;7.10;4.30;;;;;;;12.97;60.60;95027.50;5112200;28;20550;-72
2022/05/17 02:54:45;;;;;;;6.15;4.28;;;;;;;12.99;60.51;95045.63;5113475;28;20031;-72
2022/05/17 02:57:11;;;;;;;5.03;4.10;;;;;;;13.03;60.81;95041.78;5113551;28;20035;-72
2022/05/17 02:59:36;;;;;;;7.68;4.68;;;;;;;12.97;60.96;95043.13;5123232;27;20031;-72
2022/05/17 03:02:02;;;;;;;6.55;4.20;;;;;;;13.00;60.93;95049.06;5133668;27;20059;-72
2022/05/17 03:04:28;;;;;;;4.60;4.20;;;;;;;12.91;61.16;95043.69;5124178;27;20023;-72
2022/05/17 03:06:53;;;;;;;6.45;4.22;;;;;;;12.81;61.31;95037.63;5094326;28;20096;-72
2022/05/17 03:09:19;;;;;;;5.40;4.63;;;;;;;12.66;62.00;95045.03;5112852;27;20050;-73
2022/05/17 03:11:44;;;;;;;6.05;4.38;;;;;;;12.69;61.89;95043.94;5113094;27;20031;-72
2022/05/17 03:14:11;;;;;;;5.45;4.60;;;;;;;12.73;61.86;95042.69;5094907;28;20023;-72
2022/05/17 03:16:36;;;;;;;5.25;4.43;;;;;;;12.77;61.89;95041.47;5094757;28;20031;-72
2022/05/17 03:19:02;;;;;;;6.93;4.70;;;;;;;12.76;62.11;95039.84;5114055;27;20110;-72
2022/05/17 03:21:27;;;;;;;5.05;4.55;;;;;;;12.73;62.09;95051.34;5111788;28;20024;-72
2022/05/17 03:23:53;;;;;;;5.22;4.50;;;;;;;12.68;62.21;95047.50;5117427;27;20135;-72
2022/05/17 03:26:18;;;;;;;6.93;4.65;;;;;;;12.71;62.07;95050.66;5132162;27;20023;-72
2022/05/17 03:28:44;;;;;;;10.55;4.70;;;;;;;12.76;61.96;95047.66;5133336;27;20084;-72
2022/05/17 03:31:10;;;;;;;6.20;4.50;;;;;;;12.65;62.25;95032.97;5114956;27;20038;-72
2022/05/17 03:33:36;;;;;;;5.03;4.53;;;;;;;12.78;61.99;95050.94;5127836;27;20035;-72
2022/05/17 03:36:01;;;;;;;5.15;4.43;;;;;;;12.80;62.02;95043.81;5132038;27;20050;-72
2022/05/17 03:38:27;;;;;;;6.25;4.88;;;;;;;12.79;62.13;95054.34;5132025;27;20035;-72
2022/05/17 03:40:54;;;;;;;5.82;4.50;;;;;;;12.69;62.09;95049.16;5131833;27;20019;-72
2022/05/17 03:43:20;;;;;;;7.90;4.53;;;;;;;12.78;62.09;95058.75;5114055;27;20031;-72
2022/05/17 03:45:45;;;;;;;6.53;5.85;;;;;;;12.74;62.09;95052.19;5111236;28;20035;-73
2022/05/17 03:48:11;;;;;;;4.82;4.38;;;;;;;12.79;62.08;95060.41;5101396;27;20034;-72
2022/05/17 03:50:37;;;;;;;5.10;4.50;;;;;;;12.81;61.66;95058.47;5114599;27;20076;-72
2022/05/17 03:53:02;;;;;;;5.07;4.57;;;;;;;12.82;62.04;95057.53;5131541;27;20031;-72
2022/05/17 03:55:28;;;;;;;6.20;4.32;;;;;;;12.73;62.17;95056.56;5131605;27;20031;-72
2022/05/17 03:57:53;;;;;;;6.13;4.88;;;;;;;12.50;62.92;95050.72;5115740;27;20036;-73
2022/05/17 04:00:19;;;;;;;5.57;4.65;;;;;;;12.64;62.69;95059.13;5110900;28;20038;-72
2022/05/17 04:02:44;;;;;;;7.15;4.90;;;;;;;12.70;62.58;95061.22;5112010;27;20486;-72
2022/05/17 04:05:10;;;;;;;5.65;4.72;;;;;;;12.93;61.86;95067.84;5133019;27;20039;-72
2022/05/17 04:07:35;;;;;;;6.60;4.80;;;;;;;13.13;61.36;95073.91;5131324;27;20171;-72
2022/05/17 04:10:01;;;;;;;7.20;4.72;;;;;;;13.58;60.11;95067.34;5097230;27;20428;-72
2022/05/17 04:12:26;;;;;;;4.95;4.30;;;;;;;14.53;57.42;95071.63;5129273;27;20484;-72
2022/05/17 04:14:53;;;;;;;5.15;4.30;;;;;;;16.09;52.45;95074.72;5132513;27;20024;-71
2022/05/17 04:17:19;;;;;;;4.80;4.13;;;;;;;17.45;48.22;95061.63;5114068;27;20427;-71
2022/05/17 04:19:44;;;;;;;5.00;4.50;;;;;;;18.56;45.95;95058.38;5122927;27;20036;-71
2022/05/17 04:22:11;;;;;;;8.88;4.80;;;;;;;19.63;44.04;95064.69;5124048;27;20151;-71
2022/05/17 04:24:37;;;;;;;6.50;4.45;;;;;;;20.92;41.21;95060.16;5120055;27;20102;-72
2022/05/17 04:27:04;;;;;;;5.80;4.82;;;;;;;22.24;37.90;95064.28;5110982;27;20432;-72
2022/05/17 04:29:29;;;;;;;6.93;4.15;;;;;;;23.26;35.87;95062.78;5111620;28;20505;-72
2022/05/17 04:31:54;;;;;;;7.45;4.50;;;;;;;23.38;35.23;95071.78;5093414;28;20085;-72
2022/05/17 04:34:20;;;;;;;7.75;4.63;;;;;;;23.85;34.82;95070.06;5121003;27;20035;-72
2022/05/17 04:36:46;;;;;;;6.68;4.60;;;;;;;25.06;32.92;95063.56;5132112;27;20034;-72
2022/05/17 04:39:12;;;;;;;10.93;4.88;;;;;;;25.51;31.36;95066.22;5130883;27;20027;-72
2022/05/17 04:41:37;;;;;;;8.98;4.85;;;;;;;25.67;31.42;95063.06;5116043;27;20035;-72
2022/05/17 04:44:03;;;;;;;6.82;4.43;;;;;;;26.00;30.63;95054.88;5111047;28;20489;-72
2022/05/17 04:46:28;;;;;;;12.27;4.80;;;;;;;26.13;30.60;95061.91;5123726;27;20051;-72
2022/05/17 04:48:54;;;;;;;10.77;4.85;;;;;;;26.34;30.28;95062.56;5114756;27;20526;-72
2022/05/17 04:51:19;;;;;;;11.38;5.38;;;;;;;25.53;31.55;95064.97;5078185;27;20038;-72
2022/05/17 04:53:44;;;;;;;11.60;5.22;;;;;;;22.29;36.00;95068.00;5130323;27;20050;-72
2022/05/17 04:56:10;;;;;;;14.07;5.10;;;;;;;20.88;40.01;95065.97;5130705;27;20035;-72
2022/05/17 04:58:36;;;;;;;12.77;5.40;;;;;;;20.12;41.03;95081.13;5092495;28;20035;-71
2022/05/17 05:01:01;;;;;;;9.20;5.25;;;;;;;19.23;43.91;95059.72;5113357;28;20073;-71
2022/05/17 05:03:27;;;;;;;8.98;5.20;;;;;;;18.60;46.08;95067.53;5111913;28;20046;-71
2022/05/17 05:05:53;;;;;;;12.60;5.60;;;;;;;18.80;46.36;95072.44;5129932;28;20043;-71
2022/05/17 05:08:19;;;;;;;13.27;5.43;;;;;;;18.91;45.75;95075.50;5113262;27;20118;-71
2022/05/17 05:10:45;;;;;;;13.07;5.10;;;;;;;19.01;45.29;95070.03;5112228;28;20508;-71
2022/05/17 05:13:18;;;;;;;12.27;5.05;;;;;;;18.77;45.60;95073.59;5119193;27;20059;-71
2022/05/17 05:15:43;;;;;;;7.22;4.90;;;;;;;18.87;46.06;95068.94;5128279;27;20038;-71
2022/05/17 05:18:08;;;;;;;10.55;5.13;;;;;;;18.95;45.58;95071.56;5114938;27;20019;-71
2022/05/17 05:20:34;;;;;;;14.48;5.38;;;;;;;19.05;45.40;95067.88;5118699;28;20420;-70
2022/05/17 05:23:00;;;;;;;12.57;6.35;;;;;;;19.03;45.87;95064.59;5118043;28;20031;-71
2022/05/17 05:25:26;;;;;;;12.18;5.90;;;;;;;19.10;45.66;95063.72;5119474;28;20023;-71
2022/05/17 05:27:53;;;;;;;8.43;5.60;;;;;;;19.06;45.72;95061.63;5107785;28;20123;-71
2022/05/17 05:30:19;;;;;;;13.45;5.80;;;;;;;19.04;46.04;95063.63;5119185;27;20028;-71
2022/05/17 05:32:46;;;;;;;8.70;5.55;;;;;;;19.02;46.00;95065.59;5113226;28;20035;-71
2022/05/17 05:35:12;;;;;;;13.50;5.68;;;;;;;18.95;46.52;95055.75;5126819;27;20046;-71
2022/05/17 05:37:37;;;;;;;10.70;5.95;;;;;;;19.03;46.46;95068.06;5093119;28;20103;-71
2022/05/17 05:40:03;;;;;;;9.65;5.75;;;;;;;18.97;46.86;95061.69;5109785;28;20039;-71
2022/05/17 05:42:29;;;;;;;13.10;5.68;;;;;;;19.03;47.19;95060.16;5110986;28;20020;-71
2022/05/17 05:44:54;;;;;;;14.45;5.68;;;;;;;19.07;47.66;95064.06;5119457;27;20035;-71
2022/05/17 05:47:20;;;;;;;15.73;5.63;;;;;;;19.09;48.03;95066.56;5119550;27;20069;-71
2022/05/17 05:49:45;;;;;;;10.32;5.78;;;;;;;19.03;48.13;95070.69;5128874;28;20420;-71
2022/05/17 05:52:10;;;;;;;9.13;6.13;;;;;;;19.07;48.34;95065.91;5106794;28;20015;-71
2022/05/17 05:54:36;;;;;;;11.02;6.07;;;;;;;19.20;47.88;95066.97;5116169;27;20493;-71
2022/05/17 05:57:01;;;;;;;13.13;6.00;;;;;;;19.14;48.38;95064.22;5119392;27;20541;-72
2022/05/17 05:59:30;;;;;;;13.15;5.57;;;;;;;19.33;47.67;95062.94;5106571;27;20458;-69
2022/05/17 06:01:57;;;;;;;14.52;5.57;;;;;;;19.27;47.85;95071.53;5103721;27;20108;-69
2022/05/17 06:04:22;;;;;;;13.05;6.10;;;;;;;19.02;49.07;95063.78;5118408;27;20032;-69
2022/05/17 06:06:48;;;;;;;8.55;5.25;;;;;;;19.26;48.17;95062.00;5123558;27;20042;-69
2022/05/17 06:09:13;;;;;;;8.18;5.22;;;;;;;19.37;47.34;95066.88;5120376;27;20030;-70
2022/05/17 06:11:39;;;;;;;10.38;5.30;;;;;;;19.45;47.13;95060.72;5125974;27;20150;-69
2022/05/17 06:14:04;;;;;;;10.45;5.35;;;;;;;19.33;47.34;95063.75;5109018;28;20031;-69
2022/05/17 06:16:30;;;;;;;6.43;5.10;;;;;;;19.39;47.31;95055.16;5125184;27;20023;-69
2022/05/17 06:18:55;;;;;;;8.13;5.35;;;;;;;19.67;47.23;95053.81;5124931;27;20046;-68
2022/05/17 06:21:21;;;;;;;8.95;5.30;;;;;;;19.82;46.29;95057.34;5121341;27;20070;-69
2022/05/17 06:23:46;;;;;;;7.95;5.22;;;;;;;20.02;45.76;95062.91;5123269;27;20034;-69
2022/05/17 06:26:12;;;;;;;11.93;5.38;;;;;;;20.02;46.12;95070.81;5126435;27;20454;-69
2022/05/17 06:28:37;;;;;;;13.38;5.60;;;;;;;19.95;45.71;95054.91;5117922;27;20488;-69
2022/05/17 06:31:02;;;;;;;10.10;5.50;;;;;;;19.91;46.44;95074.69;5126120;27;20568;-70
2022/05/17 06:33:29;;;;;;;14.32;5.25;;;;;;;19.87;47.26;95065.53;5127863;27;20685;-69
2022/05/17 06:35:54;;;;;;;10.80;5.13;;;;;;;20.12;45.43;95067.94;5110262;27;20046;-71
2022/05/17 06:38:20;;;;;;;7.70;4.75;;;;;;;20.26;45.47;95061.88;5101273;27;20032;-70
2022/05/17 06:40:45;;;;;;;11.75;5.28;;;;;;;20.38;44.66;95065.69;5107096;27;20041;-70
2022/05/17 06:43:11;;;;;;;10.60;5.20;;;;;;;20.38;45.14;95063.03;5122622;27;20042;-70
2022/05/17 06:45:37;;;;;;;7.50;4.45;;;;;;;20.41;44.91;95059.22;5124963;27;20039;-70
2022/05/17 06:48:02;;;;;;;7.53;4.72;;;;;;;20.56;44.21;95054.81;5110111;27;20031;-71
2022/05/17 06:50:28;;;;;;;7.07;4.60;;;;;;;20.71;44.20;95065.34;5130624;27;20027;-70
2022/05/17 06:52:54;;;;;;;7.18;5.43;;;;;;;20.82;44.44;95054.31;5125700;27;20031;-72
2022/05/17 06:55:21;;;;;;;7.25;5.13;;;;;;;21.03;44.17;95050.91;5133297;27;20035;-70
2022/05/17 06:57:48;;;;;;;7.68;5.03;;;;;;;21.27;43.71;95046.31;5107895;27;20020;-70
2022/05/17 07:00:14;;;;;;;7.95;5.15;;;;;;;21.52;42.29;95052.06;5125878;27;20031;-70
2022/05/17 07:02:39;;;;;;;9.98;5.00;;;;;;;21.57;41.77;95045.22;5125667;27;21272;-70
2022/05/17 07:05:05;;;;;;;10.20;4.50;;;;;;;21.55;42.09;95028.72;5107413;27;20023;-70
2022/05/17 07:07:31;;;;;;;8.10;5.07;;;;;;;21.87;41.37;95047.72;5108287;27;20043;-70
2022/05/17 07:15:25;;;;;;;4.93;4.25;;;;;;;22.05;39.58;95039.28;5125808;27;20035;-70
2022/05/17 07:17:51;;;;;;;8.00;4.35;;;;;;;22.14;40.33;95048.72;5122972;27;20038;-70
2022/05/17 07:20:16;;;;;;;7.47;4.07;;;;;;;22.20;39.75;95041.88;5117888;27;20019;-70
2022/05/17 07:22:43;;;;;;;5.53;4.47;;;;;;;22.35;39.56;95033.84;5126730;27;20031;-70
2022/05/17 07:25:08;;;;;;;7.82;4.20;;;;;;;22.49;38.69;95040.84;5129965;27;20031;-70
2022/05/17 07:27:34;;;;;;;7.13;4.03;;;;;;;22.58;38.42;95034.34;5122268;27;20032;-70
2022/05/17 07:29:59;;;;;;;7.10;3.90;;;;;;;22.70;38.89;95032.78;5106369;27;20397;-70
2022/05/17 07:32:25;;;;;;;5.95;3.83;;;;;;;22.87;37.58;95027.16;5121870;27;20080;-70
2022/05/17 07:34:50;;;;;;;4.72;4.15;;;;;;;22.96;38.50;95031.31;5109645;27;20076;-70
2022/05/17 07:37:16;;;;;;;7.82;4.57;;;;;;;22.82;39.24;95024.31;5130173;27;20030;-70
2022/05/17 07:39:41;;;;;;;6.00;4.40;;;;;;;22.92;37.68;95027.38;5109512;28;20028;-70
2022/05/17 07:42:07;;;;;;;7.57;3.92;;;;;;;22.98;37.96;95023.97;5129044;27;20039;-70
2022/05/17 07:44:33;;;;;;;7.20;3.85;;;;;;;23.06;36.94;95021.13;5108345;28;20036;-70
2022/05/17 07:46:58;;;;;;;9.75;3.70;;;;;;;23.19;36.61;95026.47;5106670;28;20023;-71
2022/05/17 07:49:23;;;;;;;6.72;3.78;;;;;;;23.34;36.79;95022.84;5128855;27;20163;-70
2022/05/17 07:51:49;;;;;;;8.60;4.03;;;;;;;23.42;35.78;95022.66;5131313;27;20035;-71
2022/05/17 07:54:14;;;;;;;7.47;3.60;;;;;;;23.44;34.47;95019.81;5131593;27;20416;-70
2022/05/17 07:56:40;;;;;;;6.28;3.40;;;;;;;23.40;35.80;95014.06;5128379;27;20031;-70
2022/05/17 07:59:05;;;;;;;4.28;3.13;;;;;;;23.47;34.52;95012.25;5130557;27;20479;-70
2022/05/17 08:01:31;;;;;;;4.28;2.88;;;;;;;23.52;34.14;95009.03;5128622;27;20506;-70
2022/05/17 08:03:57;;;;;;;4.15;3.28;;;;;;;23.51;35.65;95000.22;5111613;27;20058;-70
2022/05/17 08:06:22;;;;;;;8.88;3.80;;;;;;;23.69;35.99;95004.13;5109176;27;20023;-70
2022/05/17 08:08:47;;;;;;;5.07;3.30;;;;;;;23.75;36.02;95006.81;5126124;27;20023;-70
2022/05/17 08:11:13;;;;;;;6.47;3.70;;;;;;;23.86;35.56;95006.19;5130086;27;20031;-70
2022/05/17 08:13:38;;;;;;;6.43;3.88;;;;;;;23.85;35.94;94999.25;5128759;27;20035;-70
2022/05/17 08:16:04;;;;;;;7.70;3.53;;;;;;;23.89;35.78;95001.50;5127456;27;20019;-70
2022/05/17 08:18:30;;;;;;;9.30;3.22;;;;;;;23.93;35.88;94994.75;5109186;27;20502;-70
2022/05/17 08:20:55;;;;;;;11.18;3.53;;;;;;;24.01;35.67;94979.44;5129207;27;20441;-71
2022/05/17 08:23:21;;;;;;;6.20;3.85;;;;;;;24.20;35.07;94987.59;5109465;27;20069;-70
2022/05/17 08:28:30;;;;;;;5.80;3.28;;;;;;;23.99;33.67;94994.78;5130337;27;20436;-70
2022/05/17 08:30:56;;;;;;;9.27;3.70;;;;;;;24.05;33.29;94988.63;5094909;27;20054;-70
2022/05/17 08:33:23;;;;;;;8.43;4.25;;;;;;;24.21;34.05;94986.56;5130126;27;20404;-71
2022/05/17 08:35:49;;;;;;;7.82;3.80;;;;;;;24.19;33.08;94984.13;5129833;27;20493;-71
2022/05/17 08:38:20;;;;;;;12.13;3.78;;;;;;;24.19;33.08;94983.31;5129632;27;20377;-71
2022/05/17 08:40:45;;;;;;;;;;;;;;;24.22;34.21;94980.25;5133418;27;20063;-70
2022/05/17 08:43:21;;;;;;;8.50;3.47;;;;;;;24.26;34.36;94978.78;5130311;27;19946;-71
2022/05/17 08:46:23;;;;;;;8.68;3.25;;;;;;;24.49;32.98;94973.88;5103135;28;20896;-71
2022/05/17 08:48:52;;;;;;;6.00;3.05;;;;;;;24.61;33.54;94968.72;5121999;27;20054;-71
2022/05/17 08:51:25;;;;;;;9.60;3.50;;;;;;;24.68;32.73;94968.69;5112112;28;20038;-71
2022/05/17 08:53:50;;;;;;;8.90;3.50;;;;;;;24.77;32.56;94967.44;5106314;27;20110;-70
2022/05/17 08:56:16;;;;;;;9.05;3.33;;;;;;;24.88;33.06;94964.09;5126030;27;20440;-71
2022/05/17 08:58:42;;;;;;;4.05;2.97;;;;;;;25.04;32.80;94956.66;5096462;27;20038;-70
2022/05/17 09:01:18;;;;;;;8.18;3.53;;;;;;;25.09;31.48;94956.84;5110131;28;20404;-72
2022/05/17 09:04:10;;;;;;;6.75;3.10;;;;;;;25.24;32.05;94964.53;5124157;28;20545;-71
2022/05/17 09:06:38;;;;;;;6.40;3.65;;;;;;;25.41;32.73;94955.03;5103144;28;20076;-70
2022/05/17 09:09:23;;;;;;;6.00;2.78;;;;;;;25.51;30.20;94954.53;5125537;27;20042;-71
2022/05/17 09:12:18;;;;;;;8.00;3.53;;;;;;;25.58;31.08;94955.31;5123718;27;20027;-70
2022/05/17 09:14:44;;;;;;;7.65;3.00;;;;;;;25.67;29.38;94953.19;5128348;27;20043;-71
2022/05/17 09:17:19;;;;;;;6.95;2.95;;;;;;;25.69;29.23;94953.81;5129466;28;20338;-71
2022/05/17 09:19:44;;;;;;;8.95;3.15;;;;;;;25.80;29.16;94942.44;5128402;27;20070;-71
2022/05/17 09:22:10;;;;;;;6.80;2.88;;;;;;;25.82;28.71;94941.16;5110785;28;20065;-71
2022/05/17 09:24:38;;;;;;;6.38;2.92;;;;;;;25.83;28.39;94939.38;5132988;27;20080;-71
2022/05/17 09:27:05;;;;;;;10.65;2.80;;;;;;;25.80;29.04;94937.94;5127962;28;20059;-71
2022/05/17 09:29:35;;;;;;;11.05;3.20;;;;;;;25.94;29.37;94943.16;5134992;27;20023;-71
2022/05/17 09:32:01;;;;;;;;;;;;;;;26.03;29.63;94941.84;5114040;27;20507;-71
2022/05/17 09:34:45;;;;;;;5.53;2.90;;;;;;;26.13;27.79;94931.47;5114614;27;19916;-71
2022/05/17 09:37:18;;;;;;;9.70;3.03;;;;;;;26.20;27.41;94928.78;5114268;27;20814;-71
2022/05/17 09:39:48;;;;;;;9.45;3.20;;;;;;;26.24;27.36;94928.13;5123218;27;20027;-71
2022/05/17 09:42:43;;;;;;;7.47;3.00;;;;;;;26.20;28.21;94920.78;5132096;27;20058;-71
2022/05/17 09:45:14;;;;;;;5.13;2.60;;;;;;;26.27;27.68;94917.03;5117766;27;20035;-71
2022/05/17 09:47:57;;;;;;;7.80;3.00;;;;;;;26.35;28.15;94920.41;5132489;27;20476;-71
2022/05/17 09:53:14;;;;;;;5.07;2.40;;;;;;;26.46;26.25;94915.13;5117830;27;20065;-71
2022/05/17 09:55:43;;;;;;;9.32;2.80;;;;;;;26.54;26.20;94914.06;5128776;27;20027;-71
2022/05/17 09:58:28;;;;;;;6.03;2.67;;;;;;;26.66;25.97;94914.94;5128959;27;20035;-70
2022/05/17 10:00:56;;;;;;;6.20;2.42;;;;;;;26.76;26.50;94908.25;5106251;27;20039;-70
2022/05/17 10:03:28;;;;;;;5.63;2.80;;;;;;;26.85;26.24;94913.03;5102870;27;20512;-70
2022/05/17 10:06:04;;;;;;;3.70;2.28;;;;;;;26.85;26.34;94907.72;5108091;27;20031;-70
2022/05/17 10:08:58;;;;;;;4.22;2.47;;;;;;;26.86;24.64;94908.56;5117415;27;20042;-70
2022/05/17 10:11:24;;;;;;;8.65;2.95;;;;;;;26.78;25.15;94906.19;5120084;27;20096;-70
2022/05/17 10:14:12;;;;;;;6.05;2.45;;;;;;;26.80;26.06;94899.59;5132379;27;20047;-70
2022/05/17 10:16:45;;;;;;;11.15;2.65;;;;;;;26.93;25.57;94893.25;5131217;27;20024;-70
2022/05/17 10:19:19;;;;;;;6.50;2.42;;;;;;;27.01;25.15;94892.13;5132464;27;20031;-70
2022/05/17 10:22:04;;;;;;;8.10;2.58;;;;;;;27.11;25.36;94887.06;5125843;27;20023;-70
2022/05/17 10:24:48;;;;;;;4.60;2.63;;;;;;;27.15;24.49;94886.38;5123611;27;20127;-70
2022/05/17 10:27:27;;;;;;;4.68;2.50;;;;;;;26.90;24.20;94877.72;5094745;27;20061;-70
2022/05/17 10:29:54;;;;;;;4.78;2.55;;;;;;;26.83;23.76;94871.66;5119206;27;20417;-71
2022/05/17 10:32:41;;;;;;;7.07;2.83;;;;;;;26.55;24.93;94877.59;5111705;27;20027;-71
2022/05/17 10:35:18;;;;;;;5.88;2.78;;;;;;;26.66;25.47;94861.69;5101992;27;20061;-71
2022/05/17 10:37:56;;;;;;;6.15;2.45;;;;;;;26.69;24.74;94855.06;5124377;27;20507;-71
2022/05/17 10:40:26;;;;;;;5.00;2.50;;;;;;;26.65;24.84;94859.22;5114760;27;20292;-71
2022/05/17 10:42:52;;;;;;;3.90;2.33;;;;;;;26.65;25.80;94857.38;5130345;27;20114;-71
2022/05/17 10:45:19;;;;;;;5.15;2.40;;;;;;;26.71;25.47;94856.47;5126366;27;20050;-71
2022/05/17 10:48:14;;;;;;;5.30;2.60;;;;;;;26.75;26.23;94840.84;5116371;27;20038;-71
2022/05/17 10:50:48;;;;;;;16.92;3.15;;;;;;;26.83;25.17;94855.69;5118214;27;20493;-71
2022/05/17 10:53:20;;;;;;;4.80;2.35;;;;;;;26.92;25.37;94851.69;5130143;27;20031;-71
2022/05/17 10:56:04;;;;;;;3.25;2.33;;;;;;;27.02;24.73;94841.25;5127328;27;20027;-71
2022/05/17 10:58:39;;;;;;;7.82;2.00;;;;;;;27.13;25.01;94847.66;5130375;27;20027;-71
2022/05/17 11:01:17;;;;;;;4.10;2.15;;;;;;;27.21;23.13;94830.53;5128041;27;20027;-71
2022/05/17 11:03:53;;;;;;;4.32;2.20;;;;;;;27.21;23.24;94830.53;5128499;27;20466;-71
2022/05/17 11:06:40;;;;;;;3.78;2.10;;;;;;;27.24;24.04;94830.09;5117730;27;20036;-71
2022/05/17 11:09:28;;;;;;;4.72;2.35;;;;;;;27.31;24.52;94820.13;5107952;27;20497;-71
2022/05/17 11:12:19;;;;;;;3.67;1.88;;;;;;;27.45;24.00;94821.53;5123429;27;20035;-71
2022/05/17 11:14:49;;;;;;;3.83;1.70;;;;;;;27.44;23.30;94801.22;5124854;27;20493;-71
2022/05/17 11:17:40;;;;;;;4.78;1.88;;;;;;;27.55;22.59;94810.25;5111341;27;20027;-71
2022/05/17 11:20:33;;;;;;;3.28;1.83;;;;;;;27.52;22.78;94798.19;5128719;27;20038;-71
2022/05/17 11:23:22;;;;;;;2.85;1.45;;;;;;;27.52;21.89;94795.53;5130127;27;20030;-72
2022/05/17 11:26:25;;;;;;;3.65;1.88;;;;;;;27.31;22.89;94790.81;5120998;27;20087;-72
2022/05/17 11:29:19;;;;;;;3.08;1.73;;;;;;;27.28;23.04;94785.94;5136263;27;20302;-71
2022/05/17 11:31:58;;;;;;;3.95;1.92;;;;;;;27.31;23.45;94788.13;5128917;27;20019;-71
2022/05/17 11:34:31;;;;;;;2.60;1.67;;;;;;;27.40;22.92;94782.22;5131891;27;20054;-72
2022/05/17 11:37:01;;;;;;;2.65;1.70;;;;;;;27.45;23.28;94776.19;5130764;27;20034;-72
2022/05/17 11:39:35;;;;;;;4.07;1.90;;;;;;;27.62;23.73;94774.44;5130998;27;20059;-71
2022/05/17 11:42:06;;;;;;;4.25;1.90;;;;;;;27.70;23.27;94777.78;5130555;27;20087;-72
2022/05/17 11:44:45;;;;;;;7.30;1.80;;;;;;;27.76;23.08;94774.97;5134817;27;20451;-71
2022/05/17 11:47:36;;;;;;;2.97;1.80;;;;;;;27.83;23.85;94775.72;5097160;27;20210;-70
2022/05/17 11:50:18;;;;;;;3.28;1.40;;;;;;;27.89;23.70;94773.97;5134660;27;20408;-71